Aérodrome :
LOGIN :

S'inscrire | Disclaimer

   EN    FR    IT 

 










Légende :    VFR   VFR Marginal   IFR   IFR Intensif   IFR Très Intensif
Visi : 
Plafond : 
>= 8 km
>= 3000ft
5 à 8 km
1000 à 3000 ft
1500m à 5 km
500 à 1000 ft
800 à 1500m
200 à 500 ft
< 800m
< 200 ft
Symboles :   Orages  Brouillard  Fortes neiges  Fortes précipitations  Vent > 20 kt
SIGMETs :   Divers  Orages  Givrage  Turbulence  Onde Orograph.  Cendres Volcan.






- Altitude de l'aérodrome : 236 ft
- Code IATA : MMX


ESMS - Malmö Sturup

DERNIER METAR :
  • 210350Z 28015KT 9999 BKN015 BKN020 04/02 Q1003

METARs EXPIRÉS :
  • 210320Z 28017KT 9999 BKN015 04/02 Q1002
  • 210250Z 29017KT 9999 BKN013 04/02 Q1002
  • 210220Z 29018KT 9999 SCT011 BKN014 OVC017 04/03 Q1001
  • 210150Z 31020KT 9999 BKN011 OVC021 04/03 Q1000
  • 210120Z 30028KT 9999 -RA SCT007 OVC009 04/03 Q0999
  • 210050Z 23018KT 9999 -RA OVC007 06/05 Q0998

TAF AMD TAF ESMS
Valide du 21 à 00h jusqu'au 22 à 00h UTC


210056Z 2100/2124 23018KT 7000 RA OVC004
BECMG 2101/2103 29018KT NSW SCT020
TEMPO 2103/2108 SHRA SCT020CB
BECMG 2118/2120 22020KT BKN010
TEMPO 2120/2124 4000 -RADZ BKN006



MET'MAP, la Météo Aéronautique d'un coup d'oeil ! - Copyright ORBIFLY Décembre 2007 - Disclaimer

ORBIFLY MET'MAP TEAM :

Programmation & Développement : Alexandra Zaïnal
Sur une idée originale de : Baudouin d'Aumeries
Assistance à la programmation : Marc-Olivier Méhu
Soutien technique & logistique : Manuel Goepfert

Contact : metmap@orbifly.com




SOURCES & CREDITS :

   NOAA